AFR6227 EDDF-LGAV
Flight info
| Callsign | AFR6227 |
|---|---|
| Flight time | N/A |
| Altitude | 37000 |
| Route | CINDY8S/18 CINDY Z74 LAMPU DCT NOMBO Y161 MAH DCT VAVOR DCT RADIZ/N0464F390 DCT MAVAR DCT BITLA UN137 SKP UM749 ROPOX |
| Aircraft | B772/H-SDE2E3FGHIJ5LORVWXY/LB1D1 |
Departure
| Time | 2026-04-17 21:26 |
|---|---|
| Airport | Frankfurt Main Airport (EDDF) |
Arrival
| Time | N/A |
|---|---|
| Airport | Athens Eleftherios Venizelos International Airport (LGAV) |
| Time | Latitude | Longitude | Altitude | Speed | Heading |
|---|---|---|---|---|---|
| 2026-04-17 19:53 | 50.04906 | 8.58064 | 375 ft | 0 kts | 340° |
| 2026-04-17 21:02 | 50.04904 | 8.58065 | 375 ft | 2 kts | 340° |
| 2026-04-17 21:02 | 50.04880 | 8.58079 | 377 ft | 4 kts | 340° |
| 2026-04-17 21:03 | 50.04863 | 8.58087 | 376 ft | 4 kts | 309° |
| 2026-04-17 21:03 | 50.04858 | 8.58074 | 376 ft | 4 kts | 247° |
| 2026-04-17 21:03 | 50.04870 | 8.58109 | 376 ft | 4 kts | 247° |
| 2026-04-17 21:03 | 50.04877 | 8.58139 | 379 ft | 4 kts | 250° |
| 2026-04-17 21:04 | 50.04884 | 8.58167 | 376 ft | 0 kts | 250° |
| 2026-04-17 21:08 | 50.04883 | 8.58165 | 376 ft | 2 kts | 250° |
| 2026-04-17 21:08 | 50.04868 | 8.58101 | 377 ft | 16 kts | 249° |
| 2026-04-17 21:08 | 50.04831 | 8.57954 | 379 ft | 0 kts | 248° |
| 2026-04-17 21:08 | 50.04830 | 8.57951 | 379 ft | 1 kts | 248° |
| 2026-04-17 21:09 | 50.04825 | 8.57941 | 377 ft | 5 kts | 230° |
| 2026-04-17 21:09 | 50.04721 | 8.57862 | 378 ft | 20 kts | 211° |
| 2026-04-17 21:09 | 50.04651 | 8.57681 | 376 ft | 20 kts | 250° |
| 2026-04-17 21:09 | 50.04606 | 8.57476 | 372 ft | 20 kts | 251° |
| 2026-04-17 21:10 | 50.04557 | 8.57273 | 369 ft | 20 kts | 246° |
| 2026-04-17 21:10 | 50.04491 | 8.57083 | 371 ft | 20 kts | 237° |
| 2026-04-17 21:10 | 50.04448 | 8.56877 | 370 ft | 20 kts | 255° |
| 2026-04-17 21:10 | 50.04410 | 8.56668 | 371 ft | 20 kts | 252° |
| 2026-04-17 21:11 | 50.04364 | 8.56483 | 370 ft | 18 kts | 246° |
| 2026-04-17 21:11 | 50.04317 | 8.56325 | 369 ft | 16 kts | 245° |
| 2026-04-17 21:11 | 50.04279 | 8.56149 | 363 ft | 18 kts | 252° |
| 2026-04-17 21:11 | 50.04242 | 8.55968 | 363 ft | 18 kts | 252° |
| 2026-04-17 21:12 | 50.04202 | 8.55788 | 361 ft | 18 kts | 250° |
| 2026-04-17 21:12 | 50.04174 | 8.55670 | 365 ft | 18 kts | 250° |
| 2026-04-17 21:12 | 50.04157 | 8.55596 | 366 ft | 0 kts | 250° |
| 2026-04-17 21:13 | 50.04145 | 8.55546 | 364 ft | 6 kts | 249° |
| 2026-04-17 21:13 | 50.04130 | 8.55484 | 360 ft | 6 kts | 249° |
| 2026-04-17 21:13 | 50.04114 | 8.55417 | 363 ft | 7 kts | 249° |
| 2026-04-17 21:13 | 50.04090 | 8.55319 | 368 ft | 13 kts | 249° |
| 2026-04-17 21:14 | 50.04049 | 8.55149 | 365 ft | 21 kts | 250° |
| 2026-04-17 21:14 | 50.04000 | 8.54944 | 363 ft | 0 kts | 250° |
| 2026-04-17 21:14 | 50.03999 | 8.54939 | 363 ft | 1 kts | 250° |
| 2026-04-17 21:14 | 50.03971 | 8.54822 | 361 ft | 22 kts | 250° |
| 2026-04-17 21:15 | 50.03931 | 8.54653 | 356 ft | 16 kts | 249° |
| 2026-04-17 21:15 | 50.03899 | 8.54520 | 358 ft | 10 kts | 249° |
| 2026-04-17 21:15 | 50.03892 | 8.54492 | 358 ft | 0 kts | 250° |
| 2026-04-17 21:15 | 50.03890 | 8.54483 | 358 ft | 2 kts | 250° |
| 2026-04-17 21:16 | 50.03889 | 8.54481 | 357 ft | 0 kts | 250° |
| 2026-04-17 21:20 | 50.03884 | 8.54459 | 357 ft | 6 kts | 250° |
| 2026-04-17 21:20 | 50.03853 | 8.54359 | 358 ft | 14 kts | 239° |
| 2026-04-17 21:20 | 50.03800 | 8.54219 | 361 ft | 15 kts | 245° |
| 2026-04-17 21:20 | 50.03756 | 8.54046 | 356 ft | 18 kts | 249° |
| 2026-04-17 21:21 | 50.03712 | 8.53863 | 355 ft | 18 kts | 249° |
| 2026-04-17 21:21 | 50.03665 | 8.53671 | 349 ft | 20 kts | 249° |
| 2026-04-17 21:21 | 50.03616 | 8.53470 | 350 ft | 20 kts | 249° |
| 2026-04-17 21:21 | 50.03568 | 8.53267 | 336 ft | 20 kts | 250° |
| 2026-04-17 21:22 | 50.03518 | 8.53058 | 353 ft | 21 kts | 250° |
| 2026-04-17 21:22 | 50.03467 | 8.52856 | 358 ft | 17 kts | 247° |
| 2026-04-17 21:22 | 50.03458 | 8.52821 | 352 ft | 0 kts | 247° |
| 2026-04-17 21:23 | 50.03452 | 8.52801 | 361 ft | 11 kts | 247° |
| 2026-04-17 21:23 | 50.03438 | 8.52751 | 359 ft | 0 kts | 248° |
| 2026-04-17 21:24 | 50.03428 | 8.52712 | 361 ft | 16 kts | 248° |
| 2026-04-17 21:24 | 50.03327 | 8.52600 | 355 ft | 15 kts | 186° |
| 2026-04-17 21:25 | 50.03315 | 8.52599 | 359 ft | 0 kts | 181° |
| 2026-04-17 21:25 | 50.03292 | 8.52599 | 359 ft | 22 kts | 179° |
| 2026-04-17 21:25 | 50.02803 | 8.52608 | 355 ft | 117 kts | 179° |
| 2026-04-17 21:25 | 50.01767 | 8.52618 | 578 ft | 170 kts | 180° |
| 2026-04-17 21:26 | 50.00617 | 8.52595 | 1699 ft | 164 kts | 181° |
| 2026-04-17 21:26 | 49.99441 | 8.52577 | 2674 ft | 171 kts | 181° |
| 2026-04-17 21:26 | 49.98185 | 8.52559 | 3496 ft | 190 kts | 180° |
| 2026-04-17 21:26 | 49.96785 | 8.52844 | 3973 ft | 223 kts | 159° |
| 2026-04-17 21:27 | 49.95492 | 8.54211 | 3946 ft | 225 kts | 127° |
| 2026-04-17 21:27 | 49.94793 | 8.56405 | 4003 ft | 231 kts | 112° |
| 2026-04-17 21:27 | 49.94115 | 8.58708 | 4009 ft | 234 kts | 115° |
| 2026-04-17 21:27 | 49.93782 | 8.61144 | 4008 ft | 233 kts | 89° |
| 2026-04-17 21:28 | 49.93817 | 8.63653 | 4008 ft | 239 kts | 91° |
| 2026-04-17 21:28 | 49.93775 | 8.66234 | 4003 ft | 238 kts | 92° |
| 2026-04-17 21:28 | 49.93621 | 8.68886 | 4006 ft | 255 kts | 107° |
| 2026-04-17 21:28 | 49.92645 | 8.71145 | 4003 ft | 257 kts | 142° |
| 2026-04-17 21:29 | 49.91153 | 8.72666 | 4025 ft | 260 kts | 148° |
| 2026-04-17 21:29 | 49.89632 | 8.74224 | 4002 ft | 261 kts | 146° |
| 2026-04-17 21:29 | 49.88228 | 8.75940 | 3985 ft | 256 kts | 129° |
| 2026-04-17 21:29 | 49.87329 | 8.78321 | 4249 ft | 257 kts | 117° |
| 2026-04-17 21:30 | 49.86490 | 8.80803 | 5005 ft | 262 kts | 118° |
| 2026-04-17 21:30 | 49.85608 | 8.83293 | 5874 ft | 264 kts | 120° |
| 2026-04-17 21:30 | 49.84710 | 8.85789 | 6704 ft | 267 kts | 120° |
| 2026-04-17 21:30 | 49.83793 | 8.88324 | 7435 ft | 272 kts | 120° |
| 2026-04-17 21:31 | 49.82869 | 8.90871 | 8198 ft | 276 kts | 120° |
| 2026-04-17 21:31 | 49.81920 | 8.93485 | 9018 ft | 280 kts | 120° |
| 2026-04-17 21:31 | 49.80958 | 8.96128 | 9844 ft | 283 kts | 120° |
| 2026-04-17 21:31 | 49.79984 | 8.98805 | 10617 ft | 288 kts | 120° |
| 2026-04-17 21:32 | 49.78987 | 9.01545 | 11136 ft | 294 kts | 120° |
| 2026-04-17 21:32 | 49.77973 | 9.04324 | 11194 ft | 299 kts | 120° |
| 2026-04-17 21:32 | 49.76949 | 9.07126 | 11201 ft | 298 kts | 120° |
| 2026-04-17 21:32 | 49.76017 | 9.09960 | 11232 ft | 293 kts | 109° |
| 2026-04-17 21:33 | 49.75483 | 9.13033 | 11906 ft | 301 kts | 103° |
| 2026-04-17 21:33 | 49.75036 | 9.16186 | 12654 ft | 307 kts | 102° |
| 2026-04-17 21:33 | 49.74608 | 9.19452 | 13456 ft | 311 kts | 101° |
| 2026-04-17 21:33 | 49.74105 | 9.22725 | 14080 ft | 317 kts | 114° |
| 2026-04-17 21:34 | 49.72771 | 9.25544 | 14293 ft | 337 kts | 141° |
| 2026-04-17 21:34 | 49.70830 | 9.27697 | 14732 ft | 350 kts | 147° |
| 2026-04-17 21:34 | 49.66944 | 9.32536 | 16278 ft | 364 kts | 136° |
| 2026-04-17 21:35 | 49.65196 | 9.35386 | 17099 ft | 369 kts | 133° |
| 2026-04-17 21:35 | 49.63505 | 9.38340 | 17935 ft | 373 kts | 132° |
| 2026-04-17 21:35 | 49.61760 | 9.41340 | 18689 ft | 377 kts | 136° |
| 2026-04-17 21:35 | 49.59697 | 9.43880 | 19342 ft | 381 kts | 149° |
| 2026-04-17 21:36 | 49.57373 | 9.45890 | 20026 ft | 384 kts | 153° |
| 2026-04-17 21:36 | 49.55005 | 9.47872 | 20702 ft | 389 kts | 152° |
| 2026-04-17 21:36 | 49.52631 | 9.49911 | 21375 ft | 393 kts | 152° |
| 2026-04-17 21:36 | 49.50247 | 9.52017 | 22024 ft | 397 kts | 151° |
| 2026-04-17 21:37 | 49.47849 | 9.54177 | 22684 ft | 401 kts | 150° |
| 2026-04-17 21:37 | 49.45438 | 9.56372 | 23326 ft | 406 kts | 150° |
| 2026-04-17 21:37 | 49.42986 | 9.58612 | 23939 ft | 410 kts | 150° |
| 2026-04-17 21:37 | 49.40517 | 9.60868 | 24447 ft | 414 kts | 150° |
| 2026-04-17 21:38 | 49.38063 | 9.63105 | 24994 ft | 418 kts | 150° |
| 2026-04-17 21:38 | 49.35547 | 9.65393 | 25525 ft | 422 kts | 150° |
| 2026-04-17 21:38 | 49.33076 | 9.67864 | 26027 ft | 427 kts | 142° |
| 2026-04-17 21:38 | 49.30891 | 9.70975 | 26534 ft | 431 kts | 133° |
| 2026-04-17 21:39 | 49.28828 | 9.74332 | 27054 ft | 435 kts | 133° |
| 2026-04-17 21:39 | 49.26741 | 9.77714 | 27560 ft | 439 kts | 133° |
| 2026-04-17 21:39 | 49.24612 | 9.81090 | 28111 ft | 442 kts | 134° |
| 2026-04-17 21:39 | 49.22444 | 9.84458 | 28632 ft | 447 kts | 134° |
| 2026-04-17 21:40 | 49.20229 | 9.87850 | 29147 ft | 451 kts | 134° |
| 2026-04-17 21:40 | 49.17998 | 9.91243 | 29643 ft | 455 kts | 134° |
| 2026-04-17 21:40 | 49.15742 | 9.94662 | 30136 ft | 459 kts | 134° |
| 2026-04-17 21:40 | 49.13461 | 9.98116 | 30577 ft | 463 kts | 134° |
| 2026-04-17 21:41 | 49.11165 | 10.01592 | 31048 ft | 465 kts | 134° |
| 2026-04-17 21:41 | 49.08861 | 10.05079 | 31508 ft | 468 kts | 134° |
| 2026-04-17 21:41 | 49.06570 | 10.08541 | 31940 ft | 470 kts | 134° |
| 2026-04-17 21:41 | 49.04208 | 10.12011 | 32354 ft | 473 kts | 136° |
| 2026-04-17 21:42 | 49.01777 | 10.15417 | 32721 ft | 477 kts | 137° |
| 2026-04-17 21:42 | 48.99306 | 10.18839 | 33107 ft | 480 kts | 137° |
| 2026-04-17 21:42 | 48.96839 | 10.22283 | 33515 ft | 482 kts | 136° |
| 2026-04-17 21:42 | 48.94370 | 10.25755 | 33901 ft | 484 kts | 136° |
| 2026-04-17 21:43 | 48.91887 | 10.29256 | 34218 ft | 488 kts | 136° |
| 2026-04-17 21:43 | 48.89382 | 10.32788 | 34527 ft | 490 kts | 136° |
| 2026-04-17 21:43 | 48.86906 | 10.36276 | 34801 ft | 493 kts | 136° |
| 2026-04-17 21:43 | 48.84397 | 10.39799 | 35061 ft | 495 kts | 136° |
| 2026-04-17 21:44 | 48.81865 | 10.43416 | 35337 ft | 496 kts | 134° |
| 2026-04-17 21:44 | 48.79468 | 10.47218 | 35595 ft | 498 kts | 131° |
| 2026-04-17 21:44 | 48.77138 | 10.51116 | 35831 ft | 500 kts | 131° |
| 2026-04-17 21:44 | 48.74783 | 10.55015 | 36046 ft | 502 kts | 132° |
| 2026-04-17 21:45 | 48.72384 | 10.58890 | 36251 ft | 504 kts | 133° |
| 2026-04-17 21:45 | 48.69978 | 10.62656 | 36465 ft | 506 kts | 133° |
| 2026-04-17 21:45 | 48.67516 | 10.66473 | 36754 ft | 505 kts | 133° |
| 2026-04-17 21:45 | 48.65069 | 10.70281 | 37072 ft | 504 kts | 133° |
| 2026-04-17 21:46 | 48.62649 | 10.74126 | 37187 ft | 506 kts | 132° |
| 2026-04-17 21:46 | 48.57792 | 10.81905 | 37210 ft | 508 kts | 132° |
| 2026-04-17 21:47 | 48.52966 | 10.89638 | 37204 ft | 502 kts | 132° |
| 2026-04-17 21:47 | 48.48194 | 10.97253 | 37214 ft | 501 kts | 133° |
| 2026-04-17 21:48 | 48.43346 | 11.04815 | 37214 ft | 501 kts | 133° |
| 2026-04-17 21:48 | 48.38486 | 11.12341 | 37210 ft | 502 kts | 133° |
| 2026-04-17 21:49 | 48.33646 | 11.19842 | 37209 ft | 503 kts | 133° |
| 2026-04-17 21:49 | 48.28761 | 11.27401 | 37216 ft | 504 kts | 133° |
| 2026-04-17 21:50 | 48.24276 | 11.35428 | 37209 ft | 501 kts | 118° |
| 2026-04-17 21:50 | 48.20984 | 11.44640 | 37208 ft | 501 kts | 116° |
| 2026-04-17 21:51 | 48.17594 | 11.53775 | 37218 ft | 502 kts | 117° |
| 2026-04-17 21:51 | 48.14108 | 11.62786 | 37215 ft | 503 kts | 118° |
| 2026-04-17 21:52 | 48.10567 | 11.71834 | 37216 ft | 503 kts | 118° |
| 2026-04-17 21:52 | 48.07029 | 11.80874 | 37207 ft | 503 kts | 118° |
| 2026-04-17 21:53 | 48.03480 | 11.89931 | 37205 ft | 504 kts | 118° |